createdAt,value
2018-12-17T00:01:27.926Z,24.23
2018-12-17T00:03:56.303Z,21.47
2018-12-17T00:06:24.755Z,24.10
2018-12-17T00:08:53.136Z,25.37
2018-12-17T00:11:21.559Z,25.53
2018-12-17T00:13:49.928Z,26.73
2018-12-17T00:16:18.304Z,22.83
2018-12-17T00:18:46.662Z,26.37
2018-12-17T00:21:15.007Z,26.30
2018-12-17T00:23:43.368Z,27.30
2018-12-17T00:26:12.219Z,25.73
2018-12-17T00:28:40.586Z,25.93
2018-12-17T00:31:09.011Z,22.70
2018-12-17T00:33:37.376Z,23.53
2018-12-17T00:36:05.848Z,25.87
2018-12-17T00:38:34.213Z,22.00
2018-12-17T00:41:02.554Z,25.80
2018-12-17T00:43:31.230Z,23.87
2018-12-17T00:45:59.759Z,28.23
2018-12-17T00:48:28.561Z,26.30
2018-12-17T00:50:56.962Z,29.70
2018-12-17T00:53:25.326Z,29.00
2018-12-17T00:55:53.663Z,29.77
2018-12-17T00:58:22.045Z,28.07
2018-12-17T01:00:50.395Z,28.57
2018-12-17T01:03:18.763Z,26.57
2018-12-17T01:05:47.103Z,25.37
2018-12-17T01:08:15.475Z,26.53
2018-12-17T01:10:43.843Z,29.07
2018-12-17T01:13:12.168Z,24.87
2018-12-17T01:15:40.525Z,23.53
2018-12-17T01:18:08.883Z,25.63
2018-12-17T01:20:37.254Z,27.60
2018-12-17T01:23:05.624Z,27.50
2018-12-17T01:25:34.195Z,27.77
2018-12-17T01:28:02.575Z,30.63
2018-12-17T01:30:30.940Z,30.50
2018-12-17T01:32:59.471Z,32.00
2018-12-17T01:35:27.856Z,28.83
2018-12-17T01:37:56.202Z,28.00
2018-12-17T01:40:24.584Z,27.47
2018-12-17T01:42:52.938Z,25.10
2018-12-17T01:45:21.320Z,33.07
2018-12-17T01:47:49.672Z,27.50
2018-12-17T01:50:18.067Z,26.40
2018-12-17T01:52:46.436Z,32.77
2018-12-17T01:55:14.923Z,28.80
2018-12-17T01:57:43.283Z,32.83
2018-12-17T02:00:11.764Z,32.87
2018-12-17T02:02:40.111Z,33.33
2018-12-17T02:05:08.524Z,30.80
2018-12-17T02:07:36.871Z,32.63
2018-12-17T02:10:05.388Z,33.67
2018-12-17T02:12:33.755Z,35.73
2018-12-17T02:15:02.181Z,32.40
2018-12-17T02:17:30.547Z,30.67
2018-12-17T02:19:58.927Z,27.50
2018-12-17T02:22:27.280Z,25.63
2018-12-17T02:24:55.664Z,30.40
2018-12-17T02:27:24.022Z,34.03
2018-12-17T02:29:52.379Z,29.73
2018-12-17T02:32:20.724Z,33.30
2018-12-17T02:34:49.092Z,29.87
2018-12-17T02:37:17.451Z,34.63
2018-12-17T02:39:45.807Z,26.87
2018-12-17T02:42:14.169Z,32.00
2018-12-17T02:44:42.604Z,29.27
2018-12-17T02:47:10.980Z,37.87
2018-12-17T02:49:39.483Z,27.70
2018-12-17T02:52:07.947Z,30.73
2018-12-17T02:54:36.418Z,28.37
2018-12-17T02:57:04.784Z,29.20
2018-12-17T02:59:33.236Z,36.77
2018-12-17T03:02:01.621Z,34.73
2018-12-17T03:04:30.002Z,40.37
2018-12-17T03:06:58.596Z,38.20
2018-12-17T03:09:26.959Z,35.33
2018-12-17T03:11:55.367Z,40.43
2018-12-17T03:14:23.837Z,33.63
2018-12-17T03:16:52.224Z,32.67
2018-12-17T03:19:20.592Z,30.60
2018-12-17T03:21:49.184Z,31.30
2018-12-17T03:24:17.539Z,33.23
2018-12-17T03:26:46.107Z,32.53
2018-12-17T03:29:14.482Z,34.23
2018-12-17T03:31:43.138Z,26.47
2018-12-17T03:34:11.518Z,39.47
2018-12-17T03:36:39.899Z,39.63
2018-12-17T03:39:08.240Z,39.97
2018-12-17T03:41:37.010Z,29.93
2018-12-17T03:44:05.375Z,40.53
2018-12-17T03:46:33.757Z,41.57
2018-12-17T03:49:02.120Z,34.73
2018-12-17T03:51:30.498Z,30.00
2018-12-17T03:53:58.954Z,32.97
2018-12-17T03:56:27.333Z,34.10
2018-12-17T03:58:59.286Z,37.50
2018-12-17T04:01:26.113Z,42.33
2018-12-17T04:03:54.443Z,38.87
2018-12-17T04:06:22.890Z,41.77
2018-12-17T04:08:51.237Z,32.63
2018-12-17T04:11:19.618Z,38.77
2018-12-17T04:13:47.972Z,38.27
2018-12-17T04:16:16.358Z,37.53
2018-12-17T04:18:44.735Z,43.13
2018-12-17T04:21:13.095Z,43.37
2018-12-17T04:23:41.456Z,45.10
2018-12-17T04:26:09.835Z,46.07
2018-12-17T04:28:38.205Z,43.83
2018-12-17T04:31:06.606Z,39.80
2018-12-17T04:33:34.983Z,38.50
2018-12-17T04:36:03.380Z,44.33
2018-12-17T04:38:31.720Z,44.17
2018-12-17T04:41:00.104Z,44.40
2018-12-17T04:43:28.473Z,38.93
2018-12-17T04:45:56.928Z,36.53
2018-12-17T04:48:25.299Z,43.17
2018-12-17T04:50:53.660Z,45.53
2018-12-17T04:53:22.009Z,44.83
2018-12-17T04:55:50.548Z,40.60
2018-12-17T04:58:18.923Z,44.63
2018-12-17T05:00:47.291Z,45.00
2018-12-17T05:03:15.643Z,43.53
2018-12-17T05:05:44.040Z,44.30
2018-12-17T05:08:12.384Z,37.47
2018-12-17T05:10:40.736Z,45.23
2018-12-17T05:13:09.087Z,47.67
2018-12-17T05:15:37.524Z,44.63
2018-12-17T05:18:05.889Z,46.70
2018-12-17T05:20:34.310Z,44.30
2018-12-17T05:23:02.702Z,42.90
2018-12-17T05:25:31.258Z,36.97
2018-12-17T05:27:59.621Z,41.83
2018-12-17T05:30:27.991Z,44.30
2018-12-17T05:32:56.357Z,38.80
2018-12-17T05:35:24.711Z,47.10
2018-12-17T05:37:53.051Z,42.57
2018-12-17T05:40:21.405Z,41.27
2018-12-17T05:42:49.752Z,41.40
2018-12-17T05:45:18.137Z,38.53
2018-12-17T05:47:46.483Z,38.97
2018-12-17T05:50:14.851Z,37.50
2018-12-17T05:52:43.184Z,43.73
2018-12-17T05:55:11.543Z,37.23
2018-12-17T05:57:39.903Z,44.87
2018-12-17T06:00:08.707Z,37.93
2018-12-17T06:02:37.052Z,43.67
2018-12-17T06:05:05.822Z,38.60
2018-12-17T06:07:34.187Z,35.97
2018-12-17T06:10:02.553Z,39.07
2018-12-17T06:12:30.927Z,39.23
2018-12-17T06:14:59.988Z,38.00
2018-12-17T06:17:28.380Z,34.23
2018-12-17T06:19:56.852Z,40.37
2018-12-17T06:22:25.225Z,43.03
2018-12-17T06:24:53.604Z,32.57
2018-12-17T06:27:22.028Z,36.77
2018-12-17T06:29:50.468Z,39.67
2018-12-17T06:32:18.831Z,37.60
2018-12-17T06:34:47.191Z,42.83
2018-12-17T06:37:15.603Z,34.00
2018-12-17T06:39:43.960Z,34.00
2018-12-17T06:42:12.421Z,36.43
2018-12-17T06:44:40.795Z,32.60
2018-12-17T06:47:09.163Z,35.43
2018-12-17T06:49:37.512Z,33.63
2018-12-17T06:52:06.043Z,31.67
2018-12-17T06:54:34.770Z,36.77
2018-12-17T06:57:03.350Z,36.60
2018-12-17T06:59:31.709Z,36.60
2018-12-17T07:02:00.203Z,37.23
2018-12-17T07:04:28.615Z,40.13
2018-12-17T07:06:57.011Z,31.27
2018-12-17T07:09:25.403Z,31.03
2018-12-17T07:11:53.874Z,38.23
2018-12-17T07:14:22.235Z,35.80
2018-12-17T07:16:50.740Z,38.63
2018-12-17T07:19:19.156Z,37.07
2018-12-17T07:21:47.643Z,33.97
2018-12-17T07:24:16.041Z,37.80
2018-12-17T07:26:44.441Z,34.20
2018-12-17T07:29:12.855Z,35.43
2018-12-17T07:31:41.343Z,35.53
2018-12-17T07:34:09.711Z,31.87
2018-12-17T07:36:38.371Z,36.40
2018-12-17T07:39:08.844Z,34.30
2018-12-17T07:41:37.484Z,32.93
2018-12-17T07:44:06.156Z,35.03
2018-12-17T07:46:34.482Z,33.13
2018-12-17T07:49:02.843Z,35.97
2018-12-17T07:51:31.235Z,30.40
2018-12-17T07:53:59.600Z,29.87
2018-12-17T07:56:27.933Z,32.40
2018-12-17T07:58:56.348Z,34.63
2018-12-17T08:01:24.698Z,39.23
2018-12-17T08:03:53.083Z,32.63
2018-12-17T08:06:21.427Z,33.53
2018-12-17T08:08:50.973Z,33.47
2018-12-17T08:11:19.494Z,32.80
2018-12-17T08:13:47.863Z,35.47
2018-12-17T08:16:16.267Z,34.97
2018-12-17T08:18:44.721Z,37.17
2018-12-17T08:21:13.076Z,31.90
2018-12-17T08:23:41.467Z,29.27
2018-12-17T08:26:09.815Z,32.30
2018-12-17T08:28:38.239Z,29.20
2018-12-17T08:31:06.770Z,32.47
2018-12-17T08:33:35.156Z,36.33
2018-12-17T08:36:03.652Z,34.80
2018-12-17T08:38:32.009Z,36.10
2018-12-17T08:41:00.363Z,34.33
2018-12-17T08:43:28.787Z,27.87
2018-12-17T08:45:57.724Z,33.80
2018-12-17T08:48:26.091Z,30.27
2018-12-17T08:50:54.464Z,34.07
2018-12-17T08:53:22.847Z,27.87
2018-12-17T08:55:51.179Z,29.30
2018-12-17T08:58:19.752Z,31.63
2018-12-17T09:00:48.128Z,30.17
2018-12-17T09:03:16.516Z,31.90
2018-12-17T09:05:44.974Z,31.33
2018-12-17T09:08:13.328Z,27.60
2018-12-17T09:10:41.734Z,29.23
2018-12-17T09:13:10.079Z,32.40
2018-12-17T09:15:38.468Z,24.17
2018-12-17T09:18:07.370Z,23.87
2018-12-17T09:20:35.960Z,25.53
2018-12-17T09:23:04.417Z,28.20
2018-12-17T09:25:32.805Z,28.40
2018-12-17T09:28:01.160Z,28.23
2018-12-17T09:30:29.676Z,26.43
2018-12-17T09:32:58.023Z,28.17
2018-12-17T09:35:26.414Z,29.40
2018-12-17T09:37:54.767Z,29.40
2018-12-17T09:40:23.142Z,30.37
2018-12-17T09:42:51.515Z,29.93
2018-12-17T09:45:19.878Z,28.47
2018-12-17T09:47:48.316Z,26.83
2018-12-17T09:50:16.843Z,28.47
2018-12-17T09:52:45.203Z,27.57
2018-12-17T09:55:13.625Z,24.33
2018-12-17T09:57:41.967Z,29.07
2018-12-17T10:00:10.676Z,25.53
2018-12-17T10:02:39.024Z,27.40
2018-12-17T10:05:07.515Z,28.00
2018-12-17T10:07:35.922Z,27.90
2018-12-17T10:10:04.999Z,28.63
2018-12-17T10:12:33.379Z,29.07
2018-12-17T10:15:01.757Z,26.53
2018-12-17T10:17:30.244Z,28.83
2018-12-17T10:19:58.579Z,28.80
2018-12-17T10:22:26.959Z,32.07
2018-12-17T10:24:55.650Z,30.03
2018-12-17T10:27:24.079Z,29.53
2018-12-17T10:29:52.428Z,28.63
2018-12-17T10:32:20.795Z,25.37
2018-12-17T10:34:49.214Z,27.03
2018-12-17T10:37:17.557Z,28.20
2018-12-17T10:39:45.904Z,24.87
2018-12-17T10:42:14.283Z,27.10
2018-12-17T10:44:42.757Z,24.37
2018-12-17T10:47:11.257Z,26.30
2018-12-17T10:49:39.728Z,23.00
2018-12-17T10:52:08.144Z,26.60
2018-12-17T10:54:36.484Z,24.97
2018-12-17T10:57:04.841Z,25.17
2018-12-17T10:59:33.210Z,23.93
2018-12-17T11:02:09.635Z,23.20
2018-12-17T11:04:42.253Z,23.83
2018-12-17T11:07:10.598Z,24.60
2018-12-17T11:09:39.079Z,21.77
2018-12-17T11:12:07.475Z,23.60
2018-12-17T11:14:35.847Z,24.17
2018-12-17T11:17:04.288Z,22.33
2018-12-17T11:19:32.656Z,20.63
2018-12-17T11:22:01.139Z,22.50
2018-12-17T11:24:29.539Z,22.33
2018-12-17T11:26:57.972Z,21.43
2018-12-17T11:29:26.344Z,20.13
2018-12-17T11:31:56.259Z,19.53
2018-12-17T11:34:24.818Z,22.83
2018-12-17T11:36:53.233Z,22.17
2018-12-17T11:39:21.736Z,21.67
2018-12-17T11:41:50.770Z,22.73
2018-12-17T11:44:19.148Z,22.30
2018-12-17T11:46:47.698Z,20.27
2018-12-17T11:49:16.228Z,23.27
2018-12-17T11:51:44.795Z,22.07
2018-12-17T11:54:13.167Z,23.03
2018-12-17T11:59:01.669Z,19.77
2018-12-17T12:01:30.024Z,21.87
2018-12-17T12:03:58.675Z,23.13
2018-12-17T12:06:27.148Z,22.67
2018-12-17T12:08:55.523Z,22.53
2018-12-17T12:11:23.876Z,21.87
2018-12-17T12:13:52.352Z,23.80
2018-12-17T12:16:21.330Z,23.67
2018-12-17T12:18:49.716Z,22.97
2018-12-17T12:21:18.131Z,23.23
2018-12-17T12:23:46.596Z,23.70
2018-12-17T12:26:15.041Z,23.47
2018-12-17T12:28:43.400Z,23.13
2018-12-17T12:31:11.740Z,24.60
2018-12-17T12:33:40.105Z,21.37
2018-12-17T12:36:08.548Z,25.83
2018-12-17T12:38:36.883Z,25.73
2018-12-17T12:41:05.280Z,24.73
2018-12-17T12:43:33.652Z,23.33
2018-12-17T12:46:02.001Z,25.70
2018-12-17T12:48:30.474Z,25.00
2018-12-17T12:50:58.864Z,26.20
2018-12-17T12:53:27.231Z,25.07
2018-12-17T12:55:55.596Z,26.03
2018-12-17T12:58:23.955Z,26.40
2018-12-17T13:00:52.320Z,23.93
2018-12-17T13:03:20.707Z,24.83
2018-12-17T13:05:49.080Z,25.07
2018-12-17T13:08:17.438Z,25.93
2018-12-17T13:10:45.806Z,25.63
2018-12-17T13:13:14.170Z,26.23
2018-12-17T13:15:42.537Z,27.43
2018-12-17T13:18:10.900Z,26.97
2018-12-17T13:20:39.287Z,27.47
2018-12-17T13:23:07.660Z,26.07
2018-12-17T13:25:41.302Z,26.63
2018-12-17T13:28:09.630Z,25.30
2018-12-17T13:30:38.123Z,25.77
2018-12-17T13:33:06.543Z,24.63
2018-12-17T13:35:34.861Z,26.93
2018-12-17T13:38:03.235Z,26.17
2018-12-17T13:40:31.675Z,26.97
2018-12-17T13:43:00.011Z,25.13
2018-12-17T13:45:28.385Z,24.50
2018-12-17T13:47:56.890Z,27.27
2018-12-17T13:50:30.700Z,26.20
2018-12-17T13:53:04.559Z,27.70
2018-12-17T13:55:32.932Z,25.20
2018-12-17T13:58:01.303Z,26.23
2018-12-17T14:00:29.651Z,27.37
2018-12-17T14:02:58.050Z,27.67
2018-12-17T14:05:26.506Z,27.57
2018-12-17T14:07:54.950Z,25.87
2018-12-17T14:10:28.760Z,26.73
2018-12-17T14:12:57.142Z,23.87
2018-12-17T14:15:29.712Z,26.30
2018-12-17T14:17:58.088Z,25.37
2018-12-17T14:20:31.691Z,27.07
2018-12-17T14:23:00.168Z,27.83
2018-12-17T14:25:28.622Z,26.90
2018-12-17T14:27:56.995Z,28.57
2018-12-17T14:30:25.360Z,26.20
2018-12-17T14:32:53.719Z,25.00
2018-12-17T14:35:22.054Z,26.07
2018-12-17T14:37:55.711Z,27.37
2018-12-17T14:40:24.093Z,27.03
2018-12-17T14:42:52.590Z,24.80
2018-12-17T14:45:21.096Z,26.20
2018-12-17T14:47:49.451Z,25.03
2018-12-17T14:50:17.814Z,26.43
2018-12-17T14:52:46.167Z,25.03
2018-12-17T14:55:14.507Z,25.10
2018-12-17T14:57:42.848Z,26.30
2018-12-17T15:00:11.390Z,27.80
2018-12-17T15:02:39.767Z,23.20
2018-12-17T15:05:08.351Z,24.83
2018-12-17T15:07:36.688Z,22.70
2018-12-17T15:10:05.463Z,25.60
2018-12-17T15:12:33.958Z,24.07
2018-12-17T15:15:02.395Z,25.87
2018-12-17T15:17:30.763Z,25.83
2018-12-17T15:19:59.267Z,22.53
2018-12-17T15:22:27.598Z,25.43
2018-12-17T15:24:56.011Z,20.97
2018-12-17T15:27:24.507Z,23.57
2018-12-17T15:29:52.891Z,23.77
2018-12-17T15:32:21.232Z,23.60
2018-12-17T15:34:49.593Z,20.63
2018-12-17T15:37:17.936Z,21.40
2018-12-17T15:39:46.287Z,22.67
2018-12-17T15:42:14.615Z,22.30
2018-12-17T15:44:42.982Z,22.97
2018-12-17T15:47:11.363Z,22.40
2018-12-17T15:49:39.819Z,24.63
2018-12-17T15:52:08.259Z,24.13
2018-12-17T15:54:36.614Z,24.67
2018-12-17T15:57:04.994Z,22.77
2018-12-17T15:59:33.547Z,23.67
2018-12-17T16:02:01.903Z,22.53
2018-12-17T16:04:30.228Z,25.43
2018-12-17T16:06:58.594Z,25.37
2018-12-17T16:09:26.937Z,23.27
2018-12-17T16:11:55.811Z,25.13
2018-12-17T16:14:24.151Z,22.37
2018-12-17T16:16:52.482Z,22.93
2018-12-17T16:19:20.816Z,23.53
2018-12-17T16:21:49.254Z,24.20
2018-12-17T16:24:17.743Z,24.77
2018-12-17T16:26:46.148Z,23.87
2018-12-17T16:29:14.499Z,23.10
2018-12-17T16:31:42.927Z,24.10
2018-12-17T16:34:11.305Z,22.77
2018-12-17T16:36:39.684Z,22.90
2018-12-17T16:39:08.366Z,22.23
2018-12-17T16:41:36.715Z,21.50
2018-12-17T16:44:05.105Z,22.30
2018-12-17T16:46:33.468Z,23.07
2018-12-17T16:49:01.835Z,21.50
2018-12-17T16:51:31.263Z,22.40
2018-12-17T16:54:00.420Z,21.40
2018-12-17T16:56:29.791Z,21.20
2018-12-17T16:58:59.599Z,20.87
2018-12-17T17:01:27.982Z,20.20
2018-12-17T17:03:56.533Z,17.93
2018-12-17T17:06:24.923Z,20.70
2018-12-17T17:08:53.387Z,20.47
2018-12-17T17:11:21.790Z,20.40
2018-12-17T17:13:50.123Z,20.63
2018-12-17T17:16:18.443Z,21.40
2018-12-17T17:18:46.827Z,20.37
2018-12-17T17:21:15.188Z,21.13
2018-12-17T17:23:43.549Z,21.57
2018-12-17T17:26:12.776Z,18.50
2018-12-17T17:28:41.192Z,21.43
2018-12-17T17:31:09.603Z,22.03
2018-12-17T17:33:37.974Z,20.00
2018-12-17T17:36:06.310Z,20.93
2018-12-17T17:38:34.651Z,20.87
2018-12-17T17:41:03.307Z,21.47
2018-12-17T17:43:31.683Z,20.57
2018-12-17T17:46:00.025Z,21.47
2018-12-17T17:48:28.499Z,21.03
2018-12-17T17:50:56.833Z,22.67
2018-12-17T17:53:25.315Z,21.73
2018-12-17T17:55:53.674Z,21.70
2018-12-17T17:58:22.051Z,20.87
2018-12-17T18:00:50.472Z,21.70
2018-12-17T18:03:18.823Z,22.00
2018-12-17T18:05:47.219Z,23.70
2018-12-17T18:08:15.615Z,22.40
2018-12-17T18:10:44.002Z,24.13
2018-12-17T18:13:12.423Z,23.13
2018-12-17T18:15:41.927Z,25.07
2018-12-17T18:18:10.567Z,25.57
2018-12-17T18:20:39.027Z,24.20
2018-12-17T18:23:08.223Z,25.07
2018-12-17T18:25:36.704Z,26.13
2018-12-17T18:28:05.154Z,24.90
2018-12-17T18:30:33.552Z,27.17
2018-12-17T18:33:01.926Z,26.57
2018-12-17T18:35:30.258Z,28.43
2018-12-17T18:37:58.684Z,27.57
2018-12-17T18:40:27.093Z,27.47
2018-12-17T18:42:55.591Z,26.23
2018-12-17T18:45:24.062Z,28.03
2018-12-17T18:47:52.409Z,28.37
2018-12-17T18:50:20.997Z,28.10
2018-12-17T18:52:49.445Z,29.07
2018-12-17T18:55:17.824Z,29.97
2018-12-17T18:57:46.163Z,29.17
2018-12-17T19:00:14.519Z,28.43
2018-12-17T19:02:42.952Z,28.57
2018-12-17T19:05:11.328Z,27.77
2018-12-17T19:07:39.727Z,28.13
2018-12-17T19:10:08.284Z,24.97
2018-12-17T19:12:37.160Z,30.23
2018-12-17T19:15:06.080Z,29.67
2018-12-17T19:17:34.400Z,31.30
2018-12-17T19:20:02.852Z,31.73
2018-12-17T19:22:31.199Z,30.17
2018-12-17T19:24:59.567Z,30.67
2018-12-17T19:27:27.916Z,30.00
2018-12-17T19:29:56.293Z,30.57
2018-12-17T19:32:24.631Z,31.03
2018-12-17T19:34:53.056Z,30.30
2018-12-17T19:37:21.387Z,30.30
2018-12-17T19:39:49.720Z,30.57
2018-12-17T19:42:18.029Z,30.13
2018-12-17T19:44:46.375Z,34.87
2018-12-17T19:47:14.795Z,30.97
2018-12-17T19:49:43.143Z,31.97
2018-12-17T19:52:11.513Z,34.80
2018-12-17T19:54:39.862Z,32.87
2018-12-17T19:57:08.240Z,32.03
2018-12-17T19:59:36.571Z,35.03
2018-12-17T20:02:05.234Z,31.73
2018-12-17T20:04:33.575Z,33.93
2018-12-17T20:07:01.981Z,32.03
2018-12-17T20:09:30.418Z,34.20
2018-12-17T20:11:58.851Z,34.47
2018-12-17T20:14:27.228Z,35.00
2018-12-17T20:16:55.646Z,34.27
2018-12-17T20:19:23.998Z,34.90
2018-12-17T20:21:52.419Z,34.47
2018-12-17T20:24:21.539Z,37.93
2018-12-17T20:26:49.917Z,36.47
2018-12-17T20:29:18.319Z,37.33
2018-12-17T20:31:46.693Z,37.63
2018-12-17T20:34:15.055Z,38.33
2018-12-17T20:36:43.439Z,38.77
2018-12-17T20:39:11.788Z,39.30
2018-12-17T20:41:40.150Z,36.30
2018-12-17T20:44:08.500Z,38.57
2018-12-17T20:46:36.853Z,38.10
2018-12-17T20:49:05.228Z,38.50
2018-12-17T20:51:33.585Z,38.27
2018-12-17T20:54:02.246Z,38.10
2018-12-17T20:56:30.615Z,38.00
2018-12-17T20:58:59.973Z,38.67
2018-12-17T21:01:28.334Z,39.23
2018-12-17T21:03:56.724Z,41.67
2018-12-17T21:06:25.070Z,40.57
2018-12-17T21:08:53.502Z,41.87
2018-12-17T21:11:21.856Z,39.20
2018-12-17T21:13:50.315Z,39.07
2018-12-17T21:16:18.675Z,39.67
2018-12-17T21:18:47.036Z,41.37
2018-12-17T21:21:15.416Z,40.80
2018-12-17T21:23:43.856Z,41.20
2018-12-17T21:26:12.239Z,42.03
2018-12-17T21:28:40.596Z,42.93
2018-12-17T21:31:08.984Z,42.50
2018-12-17T21:33:37.432Z,41.23
2018-12-17T21:36:05.803Z,42.30
2018-12-17T21:38:34.179Z,41.23
2018-12-17T21:41:02.553Z,42.77
2018-12-17T21:43:36.045Z,42.93
2018-12-17T21:46:01.323Z,42.53
2018-12-17T21:48:29.675Z,41.50
2018-12-17T21:50:58.060Z,42.50
2018-12-17T21:53:26.402Z,40.90
2018-12-17T21:55:54.735Z,45.27
2018-12-17T21:58:23.209Z,42.67
2018-12-17T22:00:51.549Z,43.17
2018-12-17T22:03:19.935Z,45.13
2018-12-17T22:05:48.291Z,46.87
2018-12-17T22:08:16.656Z,45.83
2018-12-17T22:10:44.999Z,45.40
2018-12-17T22:13:13.375Z,43.93
2018-12-17T22:15:41.704Z,43.03
2018-12-17T22:18:10.063Z,44.47
2018-12-17T22:20:38.416Z,45.10
2018-12-17T22:23:06.847Z,46.43
2018-12-17T22:25:35.203Z,45.90
2018-12-17T22:28:03.584Z,45.50
2018-12-17T22:30:31.924Z,46.83
2018-12-17T22:33:00.282Z,44.50
2018-12-17T22:35:28.652Z,46.40
2018-12-17T22:37:56.991Z,48.87
2018-12-17T22:40:25.569Z,43.03
2018-12-17T22:42:53.912Z,47.03
2018-12-17T22:45:22.364Z,43.20
2018-12-17T22:47:50.736Z,48.90
2018-12-17T22:50:19.117Z,47.03
2018-12-17T22:52:47.476Z,45.83
2018-12-17T22:55:15.832Z,46.87
2018-12-17T22:57:44.207Z,47.87
2018-12-17T23:00:12.699Z,48.23
2018-12-17T23:02:41.071Z,49.20
2018-12-17T23:05:09.610Z,46.77
2018-12-17T23:07:37.992Z,47.37
2018-12-17T23:10:17.780Z,48.10
2018-12-17T23:12:57.564Z,46.60
2018-12-17T23:15:37.368Z,46.27
2018-12-17T23:18:04.755Z,42.33
2018-12-17T23:20:33.129Z,45.10
2018-12-17T23:23:01.584Z,49.03
2018-12-17T23:25:29.903Z,46.67
2018-12-17T23:27:58.299Z,48.27
2018-12-17T23:30:26.753Z,47.43
2018-12-17T23:32:57.241Z,48.37
2018-12-17T23:35:25.644Z,45.83
2018-12-17T23:37:54.108Z,43.87
2018-12-17T23:40:22.444Z,44.07
2018-12-17T23:42:50.917Z,45.47
2018-12-17T23:45:20.423Z,45.87
2018-12-17T23:47:48.886Z,45.70
2018-12-17T23:50:17.299Z,47.57
2018-12-17T23:52:46.350Z,47.80
2018-12-17T23:55:14.691Z,46.00
2018-12-17T23:57:43.052Z,47.50
